sensor_id;sensor_type;location;lat;lon;timestamp;pressure;altitude;pressure_sealevel;temperature;humidity
64076;BME280;50327;51.328;12.324;2022-12-18T00:00:45;66049.88;;;-144.47;94.90
64076;BME280;50327;51.328;12.324;2022-12-18T00:03:12;66049.88;;;-144.47;94.92
64076;BME280;50327;51.328;12.324;2022-12-18T00:05:49;66089.78;;;-144.47;94.90
64076;BME280;50327;51.328;12.324;2022-12-18T00:08:15;66093.75;;;-144.47;95.20
64076;BME280;50327;51.328;12.324;2022-12-18T00:10:41;66155.56;;;-144.47;95.48
64076;BME280;50327;51.328;12.324;2022-12-18T00:13:07;66159.56;;;-144.47;95.40
64076;BME280;50327;51.328;12.324;2022-12-18T00:15:37;66153.56;;;-144.47;95.25
64076;BME280;50327;51.328;12.324;2022-12-18T00:18:03;66159.56;;;-144.47;95.37
64076;BME280;50327;51.328;12.324;2022-12-18T00:20:28;66151.59;;;-144.47;95.18
64076;BME280;50327;51.328;12.324;2022-12-18T00:22:54;66137.63;;;-144.47;94.90
64076;BME280;50327;51.328;12.324;2022-12-18T00:25:19;66113.69;;;-144.47;94.68
64076;BME280;50327;51.328;12.324;2022-12-18T00:27:44;66105.72;;;-144.47;94.76
64076;BME280;50327;51.328;12.324;2022-12-18T00:30:10;66117.69;;;-144.47;94.60
64076;BME280;50327;51.328;12.324;2022-12-18T00:32:36;66155.56;;;-144.47;95.22
64076;BME280;50327;51.328;12.324;2022-12-18T00:35:03;66159.56;;;-144.47;95.22
64076;BME280;50327;51.328;12.324;2022-12-18T00:37:28;66203.44;;;-144.47;95.67
64076;BME280;50327;51.328;12.324;2022-12-18T00:39:54;66305.13;;;-144.47;96.34
64076;BME280;50327;51.328;12.324;2022-12-18T00:42:19;66297.13;;;-144.47;96.31
64076;BME280;50327;51.328;12.324;2022-12-18T00:45:03;66337.03;;;-144.47;96.41
64076;BME280;50327;51.328;12.324;2022-12-18T00:47:29;66341.00;;;-144.47;96.31
64076;BME280;50327;51.328;12.324;2022-12-18T00:49:54;66339.03;;;-144.47;96.27
64076;BME280;50327;51.328;12.324;2022-12-18T00:52:19;66339.03;;;-144.47;96.16
64076;BME280;50327;51.328;12.324;2022-12-18T00:54:45;66352.97;;;-144.47;96.07
64076;BME280;50327;51.328;12.324;2022-12-18T00:59:35;66325.06;;;-144.47;95.90
64076;BME280;50327;51.328;12.324;2022-12-18T01:02:01;66349.00;;;-144.47;96.20
64076;BME280;50327;51.328;12.324;2022-12-18T01:04:26;66388.88;;;-144.47;96.22
64076;BME280;50327;51.328;12.324;2022-12-18T01:06:51;66412.78;;;-144.47;96.33
64076;BME280;50327;51.328;12.324;2022-12-18T01:09:17;66364.94;;;-144.47;96.11
64076;BME280;50327;51.328;12.324;2022-12-18T01:11:42;66329.03;;;-144.47;95.97
64076;BME280;50327;51.328;12.324;2022-12-18T01:14:07;66362.94;;;-144.47;95.86
64076;BME280;50327;51.328;12.324;2022-12-18T01:16:33;66356.97;;;-144.47;95.59
64076;BME280;50327;51.328;12.324;2022-12-18T01:18:58;66356.97;;;-144.47;95.63
64076;BME280;50327;51.328;12.324;2022-12-18T01:21:24;66321.06;;;-144.47;95.41
64076;BME280;50327;51.328;12.324;2022-12-18T01:23:54;66319.06;;;-144.47;95.40
64076;BME280;50327;51.328;12.324;2022-12-18T01:26:19;66384.88;;;-144.47;95.79
64076;BME280;50327;51.328;12.324;2022-12-18T01:28:45;66398.84;;;-144.47;95.99
64076;BME280;50327;51.328;12.324;2022-12-18T01:31:19;66394.84;;;-144.47;95.82
64076;BME280;50327;51.328;12.324;2022-12-18T01:33:50;66390.88;;;-144.47;95.87
64076;BME280;50327;51.328;12.324;2022-12-18T01:36:36;66438.72;;;-144.47;95.72
64076;BME280;50327;51.328;12.324;2022-12-18T01:39:05;66390.88;;;-144.47;95.59
64076;BME280;50327;51.328;12.324;2022-12-18T01:41:32;66349.00;;;-144.47;95.42
64076;BME280;50327;51.328;12.324;2022-12-18T01:47:30;66382.88;;;-144.47;95.22
64076;BME280;50327;51.328;12.324;2022-12-18T01:49:59;66428.75;;;-144.47;95.22
64076;BME280;50327;51.328;12.324;2022-12-18T01:52:26;66416.78;;;-144.47;95.30
64076;BME280;50327;51.328;12.324;2022-12-18T01:54:53;66362.94;;;-144.47;95.06
64076;BME280;50327;51.328;12.324;2022-12-18T01:57:19;66442.72;;;-144.47;95.45
64076;BME280;50327;51.328;12.324;2022-12-18T01:59:48;66412.78;;;-144.47;95.45
64076;BME280;50327;51.328;12.324;2022-12-18T02:02:16;66402.81;;;-144.47;95.25
64076;BME280;50327;51.328;12.324;2022-12-18T02:04:41;66420.78;;;-144.47;95.54
64076;BME280;50327;51.328;12.324;2022-12-18T02:07:29;66438.72;;;-144.47;95.23
64076;BME280;50327;51.328;12.324;2022-12-18T02:10:06;66412.78;;;-144.47;95.16
64076;BME280;50327;51.328;12.324;2022-12-18T02:18:19;66410.81;;;-144.47;94.65
64076;BME280;50327;51.328;12.324;2022-12-18T02:20:55;66390.88;;;-144.47;94.80
64076;BME280;50327;51.328;12.324;2022-12-18T02:28:38;66335.03;;;-144.47;94.33
64076;BME280;50327;51.328;12.324;2022-12-18T02:31:11;66329.03;;;-144.47;93.95
64076;BME280;50327;51.328;12.324;2022-12-18T02:33:40;66331.03;;;-144.47;93.85
64076;BME280;50327;51.328;12.324;2022-12-18T02:36:07;66323.06;;;-144.47;94.06
64076;BME280;50327;51.328;12.324;2022-12-18T02:38:34;66337.03;;;-144.47;93.88
64076;BME280;50327;51.328;12.324;2022-12-18T02:41:00;66349.00;;;-144.47;93.81
64076;BME280;50327;51.328;12.324;2022-12-18T02:43:25;66343.00;;;-144.47;93.83
64076;BME280;50327;51.328;12.324;2022-12-18T02:45:57;66378.91;;;-144.47;94.35
64076;BME280;50327;51.328;12.324;2022-12-18T02:48:26;66408.81;;;-144.47;94.36
64076;BME280;50327;51.328;12.324;2022-12-18T02:53:50;66400.84;;;-144.47;94.63
64076;BME280;50327;51.328;12.324;2022-12-18T02:56:29;66458.66;;;-144.47;94.89
64076;BME280;50327;51.328;12.324;2022-12-18T02:59:02;66468.63;;;-144.47;94.67
64076;BME280;50327;51.328;12.324;2022-12-18T03:04:49;66460.66;;;-144.47;94.06
64076;BME280;50327;51.328;12.324;2022-12-18T03:07:19;66426.75;;;-144.47;93.95
64076;BME280;50327;51.328;12.324;2022-12-18T03:09:50;66460.66;;;-144.47;94.13
64076;BME280;50327;51.328;12.324;2022-12-18T03:12:24;66392.84;;;-144.47;94.24
64076;BME280;50327;51.328;12.324;2022-12-18T03:15:04;66424.75;;;-144.47;94.05
64076;BME280;50327;51.328;12.324;2022-12-18T03:17:33;66360.94;;;-144.47;93.60
64076;BME280;50327;51.328;12.324;2022-12-18T03:20:10;66349.00;;;-144.47;93.62
64076;BME280;50327;51.328;12.324;2022-12-18T03:22:38;66390.88;;;-144.47;93.62
64076;BME280;50327;51.328;12.324;2022-12-18T03:25:06;66418.78;;;-144.47;93.85
64076;BME280;50327;51.328;12.324;2022-12-18T03:27:35;66440.72;;;-144.47;94.17
64076;BME280;50327;51.328;12.324;2022-12-18T03:30:05;66414.78;;;-144.47;93.98
64076;BME280;50327;51.328;12.324;2022-12-18T03:32:48;66446.69;;;-144.47;93.82
64076;BME280;50327;51.328;12.324;2022-12-18T03:35:24;66408.81;;;-144.47;93.70
64076;BME280;50327;51.328;12.324;2022-12-18T03:37:51;66466.63;;;-144.47;94.38
64076;BME280;50327;51.328;12.324;2022-12-18T03:40:17;66442.72;;;-144.47;94.33
64076;BME280;50327;51.328;12.324;2022-12-18T03:42:51;66482.59;;;-144.47;94.45
64076;BME280;50327;51.328;12.324;2022-12-18T03:45:25;66458.66;;;-144.47;94.32
64076;BME280;50327;51.328;12.324;2022-12-18T03:48:01;66442.72;;;-144.47;93.83
64076;BME280;50327;51.328;12.324;2022-12-18T03:55:22;66444.69;;;-144.47;94.20
64076;BME280;50327;51.328;12.324;2022-12-18T03:57:49;66486.56;;;-144.47;94.18
64076;BME280;50327;51.328;12.324;2022-12-18T04:00:17;66520.47;;;-144.47;94.15
64076;BME280;50327;51.328;12.324;2022-12-18T04:02:45;66460.66;;;-144.47;94.12
64076;BME280;50327;51.328;12.324;2022-12-18T04:05:13;66482.59;;;-144.47;94.00
64076;BME280;50327;51.328;12.324;2022-12-18T04:07:40;66448.69;;;-144.47;94.05
64076;BME280;50327;51.328;12.324;2022-12-18T04:10:07;66458.66;;;-144.47;94.07
64076;BME280;50327;51.328;12.324;2022-12-18T04:12:32;66432.75;;;-144.47;93.58
64076;BME280;50327;51.328;12.324;2022-12-18T04:14:58;66408.81;;;-144.47;93.46
64076;BME280;50327;51.328;12.324;2022-12-18T04:17:23;66384.88;;;-144.47;93.36
64076;BME280;50327;51.328;12.324;2022-12-18T04:19:49;66426.75;;;-144.47;93.66
64076;BME280;50327;51.328;12.324;2022-12-18T04:22:14;66440.72;;;-144.47;93.98
64076;BME280;50327;51.328;12.324;2022-12-18T04:24:40;66480.59;;;-144.47;94.30
64076;BME280;50327;51.328;12.324;2022-12-18T04:27:05;66498.53;;;-144.47;94.39
64076;BME280;50327;51.328;12.324;2022-12-18T04:29:31;66484.59;;;-144.47;94.26
64076;BME280;50327;51.328;12.324;2022-12-18T04:31:56;66466.63;;;-144.47;93.71
64076;BME280;50327;51.328;12.324;2022-12-18T04:34:21;66468.63;;;-144.47;93.80
64076;BME280;50327;51.328;12.324;2022-12-18T04:36:47;66448.69;;;-144.47;94.02
64076;BME280;50327;51.328;12.324;2022-12-18T04:39:13;66484.59;;;-144.47;94.03
64076;BME280;50327;51.328;12.324;2022-12-18T04:41:39;66500.53;;;-144.47;94.17
64076;BME280;50327;51.328;12.324;2022-12-18T04:44:04;66480.59;;;-144.47;94.19
64076;BME280;50327;51.328;12.324;2022-12-18T04:46:30;66454.66;;;-144.47;93.79
64076;BME280;50327;51.328;12.324;2022-12-18T04:48:55;66506.53;;;-144.47;94.07
64076;BME280;50327;51.328;12.324;2022-12-18T04:51:20;66472.63;;;-144.47;93.90
64076;BME280;50327;51.328;12.324;2022-12-18T04:53:46;66474.63;;;-144.47;93.86
64076;BME280;50327;51.328;12.324;2022-12-18T04:56:13;66456.66;;;-144.47;93.76
64076;BME280;50327;51.328;12.324;2022-12-18T04:58:40;66506.53;;;-144.47;93.80
64076;BME280;50327;51.328;12.324;2022-12-18T05:01:06;66524.47;;;-144.47;93.80
64076;BME280;50327;51.328;12.324;2022-12-18T05:03:33;66472.63;;;-144.47;93.63
64076;BME280;50327;51.328;12.324;2022-12-18T05:05:58;66478.59;;;-144.47;93.55
64076;BME280;50327;51.328;12.324;2022-12-18T05:08:24;66510.50;;;-144.47;93.89
64076;BME280;50327;51.328;12.324;2022-12-18T05:10:49;66534.44;;;-144.47;93.66
64076;BME280;50327;51.328;12.324;2022-12-18T05:13:15;66474.63;;;-144.47;93.68
64076;BME280;50327;51.328;12.324;2022-12-18T05:15:40;66546.41;;;-144.47;93.83
64076;BME280;50327;51.328;12.324;2022-12-18T05:18:07;66556.38;;;-144.47;94.29
64076;BME280;50327;51.328;12.324;2022-12-18T05:20:33;66556.38;;;-144.47;94.18
64076;BME280;50327;51.328;12.324;2022-12-18T05:22:58;66526.47;;;-144.47;93.83
64076;BME280;50327;51.328;12.324;2022-12-18T05:25:24;66520.47;;;-144.47;94.04
64076;BME280;50327;51.328;12.324;2022-12-18T05:27:49;66542.41;;;-144.47;93.68
64076;BME280;50327;51.328;12.324;2022-12-18T05:30:15;66526.47;;;-144.47;93.96
64076;BME280;50327;51.328;12.324;2022-12-18T05:32:41;66532.44;;;-144.47;94.06
64076;BME280;50327;51.328;12.324;2022-12-18T05:35:08;66570.34;;;-144.47;94.20
64076;BME280;50327;51.328;12.324;2022-12-18T05:37:34;66584.28;;;-144.47;94.10
64076;BME280;50327;51.328;12.324;2022-12-18T05:39:59;66580.31;;;-144.47;94.21
64076;BME280;50327;51.328;12.324;2022-12-18T05:42:25;66614.22;;;-144.47;94.57
64076;BME280;50327;51.328;12.324;2022-12-18T05:44:50;66614.22;;;-144.47;94.38
64076;BME280;50327;51.328;12.324;2022-12-18T05:47:16;66620.19;;;-144.47;94.58
64076;BME280;50327;51.328;12.324;2022-12-18T05:49:41;66582.31;;;-144.47;94.37
64076;BME280;50327;51.328;12.324;2022-12-18T05:52:06;66610.22;;;-144.47;94.23
64076;BME280;50327;51.328;12.324;2022-12-18T05:54:32;66570.34;;;-144.47;93.86
64076;BME280;50327;51.328;12.324;2022-12-18T05:56:58;66554.38;;;-144.47;93.94
64076;BME280;50327;51.328;12.324;2022-12-18T05:59:23;66576.31;;;-144.47;93.86
64076;BME280;50327;51.328;12.324;2022-12-18T06:01:49;66660.06;;;-144.47;94.42
64076;BME280;50327;51.328;12.324;2022-12-18T06:04:14;66616.19;;;-144.47;94.01
64076;BME280;50327;51.328;12.324;2022-12-18T06:06:40;66626.16;;;-144.47;94.07
64076;BME280;50327;51.328;12.324;2022-12-18T06:09:05;66612.22;;;-144.47;93.78
64076;BME280;50327;51.328;12.324;2022-12-18T06:11:34;66608.22;;;-144.47;94.03
64076;BME280;50327;51.328;12.324;2022-12-18T06:13:59;66576.31;;;-144.47;93.71
64076;BME280;50327;51.328;12.324;2022-12-18T06:16:26;66584.28;;;-144.47;93.80
64076;BME280;50327;51.328;12.324;2022-12-18T06:18:51;66602.25;;;-144.47;93.72
64076;BME280;50327;51.328;12.324;2022-12-18T06:21:17;66612.22;;;-144.47;93.83
64076;BME280;50327;51.328;12.324;2022-12-18T06:23:42;66600.25;;;-144.47;93.79
64076;BME280;50327;51.328;12.324;2022-12-18T06:26:10;66602.25;;;-144.47;93.73
64076;BME280;50327;51.328;12.324;2022-12-18T06:28:36;66590.28;;;-144.47;93.51
64076;BME280;50327;51.328;12.324;2022-12-18T06:31:05;66580.31;;;-144.47;93.26
64076;BME280;50327;51.328;12.324;2022-12-18T06:33:30;66576.31;;;-144.47;93.33
64076;BME280;50327;51.328;12.324;2022-12-18T06:36:01;66546.41;;;-144.47;93.12
64076;BME280;50327;51.328;12.324;2022-12-18T06:38:27;66544.41;;;-144.47;93.59
64076;BME280;50327;51.328;12.324;2022-12-18T06:40:52;66552.38;;;-144.47;93.20
64076;BME280;50327;51.328;12.324;2022-12-18T06:43:17;66512.50;;;-144.47;93.25
64076;BME280;50327;51.328;12.324;2022-12-18T06:45:43;66506.53;;;-144.47;93.14
64076;BME280;50327;51.328;12.324;2022-12-18T06:48:08;66452.69;;;-144.47;92.87
64076;BME280;50327;51.328;12.324;2022-12-18T06:50:34;66424.75;;;-144.47;92.82
64076;BME280;50327;51.328;12.324;2022-12-18T06:52:59;66354.97;;;-144.47;92.90
64076;BME280;50327;51.328;12.324;2022-12-18T06:55:25;66317.09;;;-144.47;92.86
64076;BME280;50327;51.328;12.324;2022-12-18T06:57:50;66265.25;;;-144.47;93.37
64076;BME280;50327;51.328;12.324;2022-12-18T07:00:16;66169.53;;;-144.47;92.81
64076;BME280;50327;51.328;12.324;2022-12-18T07:02:41;66010.00;;;-144.47;92.50
64076;BME280;50327;51.328;12.324;2022-12-18T07:05:07;65914.31;;;-144.47;92.65
64076;BME280;50327;51.328;12.324;2022-12-18T07:07:36;65746.84;;;-144.47;92.87
64076;BME280;50327;51.328;12.324;2022-12-18T07:10:01;65551.47;;;-144.47;92.74
64076;BME280;50327;51.328;12.324;2022-12-18T07:12:27;65395.97;;;-144.47;93.05
64076;BME280;50327;51.328;12.324;2022-12-18T07:14:52;65240.47;;;-144.47;93.15
64076;BME280;50327;51.328;12.324;2022-12-18T07:17:17;65007.25;;;-144.47;92.80
64076;BME280;50327;51.328;12.324;2022-12-18T07:19:43;64758.09;;;-144.47;92.29
64076;BME280;50327;51.328;12.324;2022-12-18T07:22:08;64538.88;;;-144.47;92.48
64076;BME280;50327;51.328;12.324;2022-12-18T07:24:34;64319.66;;;-144.47;92.97
64076;BME280;50327;51.328;12.324;2022-12-18T07:26:59;64122.34;;;-144.47;93.11
64076;BME280;50327;51.328;12.324;2022-12-18T07:29:25;63897.19;;;-144.47;92.91
64076;BME280;50327;51.328;12.324;2022-12-18T07:31:51;63668.03;;;-144.47;92.81
64076;BME280;50327;51.328;12.324;2022-12-18T07:34:16;63401.06;;;-144.47;92.56
64076;BME280;50327;51.328;12.324;2022-12-18T07:36:41;63183.91;;;-144.47;92.55
64076;BME280;50327;51.328;12.324;2022-12-18T07:39:07;62958.78;;;-144.47;92.73
64076;BME280;50327;51.328;12.324;2022-12-18T07:41:33;62743.66;;;-144.47;93.56
64076;BME280;50327;51.328;12.324;2022-12-18T07:43:58;62713.78;;;-144.47;95.81
64076;BME280;50327;51.328;12.324;2022-12-18T07:46:23;62426.94;;;-144.47;93.98
64076;BME280;50327;51.328;12.324;2022-12-18T07:48:49;62112.25;;;-144.47;92.90
64076;BME280;50327;51.328;12.324;2022-12-18T07:51:14;62052.50;;;-144.47;95.59
64076;BME280;50327;51.328;12.324;2022-12-18T07:53:40;61839.44;;;-144.47;93.70
64076;BME280;50327;51.328;12.324;2022-12-18T07:56:09;61447.13;;;-144.47;90.40
64076;BME280;50327;51.328;12.324;2022-12-18T07:58:35;61244.03;;;-144.47;90.12
64076;BME280;50327;51.328;12.324;2022-12-18T08:03:29;60774.19;;;-144.47;86.86
64076;BME280;50327;51.328;12.324;2022-12-18T08:06:01;60628.88;;;-144.47;87.34
64076;BME280;50327;51.328;12.324;2022-12-18T08:08:27;60539.28;;;-144.47;88.14
64076;BME280;50327;51.328;12.324;2022-12-18T08:10:52;60537.28;;;-144.47;88.41
64076;BME280;50327;51.328;12.324;2022-12-18T08:13:18;60467.63;;;-144.47;88.51
64076;BME280;50327;51.328;12.324;2022-12-18T08:15:43;60395.97;;;-144.47;88.88
64076;BME280;50327;51.328;12.324;2022-12-18T08:18:08;60374.06;;;-144.47;88.78
64076;BME280;50327;51.328;12.324;2022-12-18T08:20:34;60336.25;;;-144.47;88.95
64076;BME280;50327;51.328;12.324;2022-12-18T08:22:59;60320.31;;;-144.47;89.01
64076;BME280;50327;51.328;12.324;2022-12-18T08:25:25;60266.56;;;-144.47;89.26
64076;BME280;50327;51.328;12.324;2022-12-18T08:27:50;60244.69;;;-144.47;89.16
64076;BME280;50327;51.328;12.324;2022-12-18T08:30:15;60240.69;;;-144.47;89.03
64076;BME280;50327;51.328;12.324;2022-12-18T08:32:41;60200.88;;;-144.47;89.52
64076;BME280;50327;51.328;12.324;2022-12-18T08:35:07;60200.88;;;-144.47;89.14
64076;BME280;50327;51.328;12.324;2022-12-18T08:37:33;60198.91;;;-144.47;88.60
64076;BME280;50327;51.328;12.324;2022-12-18T08:39:58;60119.28;;;-144.47;89.31
64076;BME280;50327;51.328;12.324;2022-12-18T08:42:24;60145.16;;;-144.47;89.60
64076;BME280;50327;51.328;12.324;2022-12-18T08:45:08;60125.25;;;-144.47;88.83
64076;BME280;50327;51.328;12.324;2022-12-18T08:47:34;60101.38;;;-144.47;89.11
64076;BME280;50327;51.328;12.324;2022-12-18T08:49:59;60093.41;;;-144.47;88.96
64076;BME280;50327;51.328;12.324;2022-12-18T08:52:25;60093.41;;;-144.47;89.18
64076;BME280;50327;51.328;12.324;2022-12-18T08:54:50;60075.50;;;-144.47;89.36
64076;BME280;50327;51.328;12.324;2022-12-18T08:57:16;60069.53;;;-144.47;88.66
64076;BME280;50327;51.328;12.324;2022-12-18T08:59:41;60043.66;;;-144.47;88.62
64076;BME280;50327;51.328;12.324;2022-12-18T09:02:09;60045.63;;;-144.47;88.83
64076;BME280;50327;51.328;12.324;2022-12-18T09:04:35;60059.56;;;-144.47;88.82
64076;BME280;50327;51.328;12.324;2022-12-18T09:07:00;60035.69;;;-144.47;88.71
64076;BME280;50327;51.328;12.324;2022-12-18T09:09:25;60073.50;;;-144.47;88.55
64076;BME280;50327;51.328;12.324;2022-12-18T09:11:51;60023.75;;;-144.47;88.44
64076;BME280;50327;51.328;12.324;2022-12-18T09:14:16;60001.84;;;-144.47;88.29
64076;BME280;50327;51.328;12.324;2022-12-18T09:16:41;59999.84;;;-144.47;88.49
64076;BME280;50327;51.328;12.324;2022-12-18T09:19:08;60015.78;;;-144.47;88.60
64076;BME280;50327;51.328;12.324;2022-12-18T09:21:35;59973.97;;;-144.47;88.50
64076;BME280;50327;51.328;12.324;2022-12-18T09:24:00;60005.81;;;-144.47;88.93
64076;BME280;50327;51.328;12.324;2022-12-18T09:26:26;59979.94;;;-144.47;87.92
64076;BME280;50327;51.328;12.324;2022-12-18T09:28:52;59964.03;;;-144.47;87.78
64076;BME280;50327;51.328;12.324;2022-12-18T09:31:20;59997.88;;;-144.47;87.76
64076;BME280;50327;51.328;12.324;2022-12-18T09:33:46;59928.22;;;-144.47;87.74
64076;BME280;50327;51.328;12.324;2022-12-18T09:36:14;59970.00;;;-144.47;87.77
64076;BME280;50327;51.328;12.324;2022-12-18T09:38:40;59981.94;;;-144.47;87.69
64076;BME280;50327;51.328;12.324;2022-12-18T09:43:57;59930.19;;;-144.47;88.16
64076;BME280;50327;51.328;12.324;2022-12-18T09:46:28;59942.13;;;-144.47;88.08
64076;BME280;50327;51.328;12.324;2022-12-18T09:48:58;59964.03;;;-144.47;87.52
64076;BME280;50327;51.328;12.324;2022-12-18T09:51:38;59940.16;;;-144.47;87.71
64076;BME280;50327;51.328;12.324;2022-12-18T09:54:16;59934.19;;;-144.47;87.25
64076;BME280;50327;51.328;12.324;2022-12-18T09:56:43;59894.38;;;-144.47;87.20
64076;BME280;50327;51.328;12.324;2022-12-18T09:59:36;59912.28;;;-144.47;87.47
64076;BME280;50327;51.328;12.324;2022-12-18T10:02:23;59906.31;;;-144.47;87.39
64076;BME280;50327;51.328;12.324;2022-12-18T10:05:01;59894.38;;;-144.47;87.14
64076;BME280;50327;51.328;12.324;2022-12-18T10:07:40;59920.25;;;-144.47;87.03
64076;BME280;50327;51.328;12.324;2022-12-18T10:18:33;59928.22;;;-144.47;87.09
64076;BME280;50327;51.328;12.324;2022-12-18T10:21:11;59896.38;;;-144.47;86.70
64076;BME280;50327;51.328;12.324;2022-12-18T10:26:23;59880.44;;;-144.47;86.60
64076;BME280;50327;51.328;12.324;2022-12-18T10:28:49;59876.47;;;-144.47;86.46
64076;BME280;50327;51.328;12.324;2022-12-18T10:31:18;59874.47;;;-144.47;86.25
64076;BME280;50327;51.328;12.324;2022-12-18T10:33:44;59864.50;;;-144.47;86.19
64076;BME280;50327;51.328;12.324;2022-12-18T10:36:10;59900.34;;;-144.47;86.25
64076;BME280;50327;51.328;12.324;2022-12-18T10:38:35;59892.38;;;-144.47;86.09
64076;BME280;50327;51.328;12.324;2022-12-18T10:41:43;59870.50;;;-144.47;86.00
64076;BME280;50327;51.328;12.324;2022-12-18T10:46:37;59860.53;;;-144.47;85.18
64076;BME280;50327;51.328;12.324;2022-12-18T10:49:02;59846.59;;;-144.47;84.87
64076;BME280;50327;51.328;12.324;2022-12-18T10:51:31;59854.56;;;-144.47;84.18
64076;BME280;50327;51.328;12.324;2022-12-18T10:54:05;59852.56;;;-144.47;83.39
64076;BME280;50327;51.328;12.324;2022-12-18T10:56:34;59834.66;;;-144.47;83.32
64076;BME280;50327;51.328;12.324;2022-12-18T10:59:06;59806.78;;;-144.47;82.97
64076;BME280;50327;51.328;12.324;2022-12-18T11:04:19;59755.06;;;-144.47;81.99
64076;BME280;50327;51.328;12.324;2022-12-18T11:07:04;59782.91;;;-144.47;81.41
64076;BME280;50327;51.328;12.324;2022-12-18T11:09:38;59802.81;;;-144.47;80.76
64076;BME280;50327;51.328;12.324;2022-12-18T11:12:15;59784.91;;;-144.47;80.86
64076;BME280;50327;51.328;12.324;2022-12-18T11:14:52;59751.06;;;-144.47;80.73
64076;BME280;50327;51.328;12.324;2022-12-18T11:19:44;59768.97;;;-144.47;80.15
64076;BME280;50327;51.328;12.324;2022-12-18T11:22:30;59862.53;;;-144.47;80.03
64076;BME280;50327;51.328;12.324;2022-12-18T11:25:05;59844.63;;;-144.47;80.01
64076;BME280;50327;51.328;12.324;2022-12-18T11:27:31;59824.72;;;-144.47;80.71
64076;BME280;50327;51.328;12.324;2022-12-18T11:30:30;59828.69;;;-144.47;81.02
64076;BME280;50327;51.328;12.324;2022-12-18T11:33:04;59856.56;;;-144.47;80.50
64076;BME280;50327;51.328;12.324;2022-12-18T11:38:24;59818.75;;;-144.47;80.94
64076;BME280;50327;51.328;12.324;2022-12-18T11:45:52;59770.97;;;-144.47;80.80
64076;BME280;50327;51.328;12.324;2022-12-18T11:51:14;59749.09;;;-144.47;80.53
64076;BME280;50327;51.328;12.324;2022-12-18T11:53:44;59709.28;;;-144.47;80.74
64076;BME280;50327;51.328;12.324;2022-12-18T11:56:27;59709.28;;;-144.47;80.51
64076;BME280;50327;51.328;12.324;2022-12-18T12:01:46;59659.53;;;-144.47;79.69
64076;BME280;50327;51.328;12.324;2022-12-18T12:07:12;59703.31;;;-144.47;78.16
64076;BME280;50327;51.328;12.324;2022-12-18T12:40:01;59643.59;;;-144.47;73.52
64076;BME280;50327;51.328;12.324;2022-12-18T12:45:27;59621.72;;;-144.47;73.09
64076;BME280;50327;51.328;12.324;2022-12-18T12:47:54;59625.69;;;-144.47;73.11
64076;BME280;50327;51.328;12.324;2022-12-18T12:50:22;59623.69;;;-144.47;72.75
64076;BME280;50327;51.328;12.324;2022-12-18T12:52:55;59581.91;;;-144.47;72.48
64076;BME280;50327;51.328;12.324;2022-12-18T12:55:24;59566.00;;;-144.47;72.12
64076;BME280;50327;51.328;12.324;2022-12-18T12:57:59;59609.78;;;-144.47;71.63
64076;BME280;50327;51.328;12.324;2022-12-18T13:00:36;59550.06;;;-144.47;72.23
64076;BME280;50327;51.328;12.324;2022-12-18T13:05:53;59567.97;;;-144.47;71.83
64076;BME280;50327;51.328;12.324;2022-12-18T13:08:28;59510.28;;;-144.47;70.95
64076;BME280;50327;51.328;12.324;2022-12-18T13:10:55;59488.38;;;-144.47;70.88
64076;BME280;50327;51.328;12.324;2022-12-18T13:13:50;59528.19;;;-144.47;69.58
64076;BME280;50327;51.328;12.324;2022-12-18T13:16:21;59536.13;;;-144.47;69.92
64076;BME280;50327;51.328;12.324;2022-12-18T13:18:55;59583.91;;;-144.47;70.44
64076;BME280;50327;51.328;12.324;2022-12-18T13:21:32;59575.94;;;-144.47;70.51
64076;BME280;50327;51.328;12.324;2022-12-18T13:24:27;59566.00;;;-144.47;70.51
64076;BME280;50327;51.328;12.324;2022-12-18T13:26:53;59554.06;;;-144.47;69.74
64076;BME280;50327;51.328;12.324;2022-12-18T13:29:42;59603.81;;;-144.47;69.67
64076;BME280;50327;51.328;12.324;2022-12-18T13:32:26;59599.81;;;-144.47;69.46
64076;BME280;50327;51.328;12.324;2022-12-18T13:37:44;59735.16;;;-144.47;69.32
64076;BME280;50327;51.328;12.324;2022-12-18T13:45:49;59806.78;;;-144.47;71.40
64076;BME280;50327;51.328;12.324;2022-12-18T13:48:25;59876.47;;;-144.47;72.28
64076;BME280;50327;51.328;12.324;2022-12-18T13:53:38;59852.56;;;-144.47;73.30
64076;BME280;50327;51.328;12.324;2022-12-18T13:56:05;59848.59;;;-144.47;73.79
64076;BME280;50327;51.328;12.324;2022-12-18T13:58:30;59866.50;;;-144.47;74.33
64076;BME280;50327;51.328;12.324;2022-12-18T14:00:56;59908.31;;;-144.47;74.17
64076;BME280;50327;51.328;12.324;2022-12-18T14:03:26;59908.31;;;-144.47;74.29
64076;BME280;50327;51.328;12.324;2022-12-18T14:06:03;59910.28;;;-144.47;75.56
64076;BME280;50327;51.328;12.324;2022-12-18T14:08:38;59942.13;;;-144.47;75.26
64076;BME280;50327;51.328;12.324;2022-12-18T14:11:05;59926.22;;;-144.47;75.24
64076;BME280;50327;51.328;12.324;2022-12-18T14:13:41;59894.38;;;-144.47;74.84
64076;BME280;50327;51.328;12.324;2022-12-18T14:16:07;59894.38;;;-144.47;75.11
64076;BME280;50327;51.328;12.324;2022-12-18T14:18:54;59916.25;;;-144.47;75.03
64076;BME280;50327;51.328;12.324;2022-12-18T14:21:29;59954.06;;;-144.47;75.38
64076;BME280;50327;51.328;12.324;2022-12-18T14:24:18;59999.84;;;-144.47;75.54
64076;BME280;50327;51.328;12.324;2022-12-18T14:26:44;60025.72;;;-144.47;75.73
64076;BME280;50327;51.328;12.324;2022-12-18T14:29:21;60007.81;;;-144.47;76.18
64076;BME280;50327;51.328;12.324;2022-12-18T14:32:04;60049.63;;;-144.47;76.21
64076;BME280;50327;51.328;12.324;2022-12-18T14:34:30;60083.44;;;-144.47;76.40